sensor_id;sensor_type;location;lat;lon;timestamp;temperature;humidity
76750;DHT22;66447;35.844;14.468;2023-03-07T00:07:12;16.78;118.99
76750;DHT22;66447;35.844;14.468;2023-03-07T00:22:14;17.65;118.99
76750;DHT22;66447;35.844;14.468;2023-03-07T00:37:15;17.76;118.99
76750;DHT22;66447;35.844;14.468;2023-03-07T00:52:16;17.36;118.99
76750;DHT22;66447;35.844;14.468;2023-03-07T01:07:17;17.10;118.99
76750;DHT22;66447;35.844;14.468;2023-03-07T01:22:18;16.93;118.99
76750;DHT22;66447;35.844;14.468;2023-03-07T01:37:20;17.54;118.99
76750;DHT22;66447;35.844;14.468;2023-03-07T01:52:46;16.92;118.99
76750;DHT22;66447;35.844;14.468;2023-03-07T02:07:49;17.05;118.99
76750;DHT22;66447;35.844;14.468;2023-03-07T02:22:50;17.02;118.99
76750;DHT22;66447;35.844;14.468;2023-03-07T02:37:55;16.94;118.99
76750;DHT22;66447;35.844;14.468;2023-03-07T02:52:58;16.41;118.99
76750;DHT22;66447;35.844;14.468;2023-03-07T03:07:59;16.90;118.99
76750;DHT22;66447;35.844;14.468;2023-03-07T03:23:00;16.93;118.99
76750;DHT22;66447;35.844;14.468;2023-03-07T03:38:01;16.69;118.99
76750;DHT22;66447;35.844;14.468;2023-03-07T03:53:03;16.63;118.99
76750;DHT22;66447;35.844;14.468;2023-03-07T04:08:04;16.42;118.99
76750;DHT22;66447;35.844;14.468;2023-03-07T04:23:05;16.43;118.99
76750;DHT22;66447;35.844;14.468;2023-03-07T04:38:07;16.06;118.99
76750;DHT22;66447;35.844;14.468;2023-03-07T04:53:09;16.20;118.99
76750;DHT22;66447;35.844;14.468;2023-03-07T05:08:09;16.06;118.99
76750;DHT22;66447;35.844;14.468;2023-03-07T05:23:11;15.26;118.99
76750;DHT22;66447;35.844;14.468;2023-03-07T05:38:15;15.51;118.99
76750;DHT22;66447;35.844;14.468;2023-03-07T05:53:17;16.67;118.99
76750;DHT22;66447;35.844;14.468;2023-03-07T06:08:19;16.24;118.99
76750;DHT22;66447;35.844;14.468;2023-03-07T06:23:19;16.57;118.99
76750;DHT22;66447;35.844;14.468;2023-03-07T06:38:21;16.56;118.99
76750;DHT22;66447;35.844;14.468;2023-03-07T06:53:23;19.32;118.99
76750;DHT22;66447;35.844;14.468;2023-03-07T07:08:25;19.35;118.99
76750;DHT22;66447;35.844;14.468;2023-03-07T07:23:29;18.86;118.99
76750;DHT22;66447;35.844;14.468;2023-03-07T07:38:31;18.96;118.99
76750;DHT22;66447;35.844;14.468;2023-03-07T07:53:33;19.55;118.99
76750;DHT22;66447;35.844;14.468;2023-03-07T08:08:36;19.52;118.99
76750;DHT22;66447;35.844;14.468;2023-03-07T08:23:37;20.64;118.99
76750;DHT22;66447;35.844;14.468;2023-03-07T08:38:39;20.31;118.99
76750;DHT22;66447;35.844;14.468;2023-03-07T08:53:41;19.26;118.99
76750;DHT22;66447;35.844;14.468;2023-03-07T09:08:43;19.00;118.99
76750;DHT22;66447;35.844;14.468;2023-03-07T09:23:45;20.59;118.99
76750;DHT22;66447;35.844;14.468;2023-03-07T09:38:47;20.91;118.99
76750;DHT22;66447;35.844;14.468;2023-03-07T09:53:55;22.91;118.99
76750;DHT22;66447;35.844;14.468;2023-03-07T10:08:59;21.52;118.99
76750;DHT22;66447;35.844;14.468;2023-03-07T10:39:11;20.62;118.99
76750;DHT22;66447;35.844;14.468;2023-03-07T10:54:19;21.95;118.99
76750;DHT22;66447;35.844;14.468;2023-03-07T11:09:26;21.38;118.99
76750;DHT22;66447;35.844;14.468;2023-03-07T11:24:30;21.13;118.99
76750;DHT22;66447;35.844;14.468;2023-03-07T11:39:57;20.14;118.99
76750;DHT22;66447;35.844;14.468;2023-03-07T11:55:25;19.69;118.99
76750;DHT22;66447;35.844;14.468;2023-03-07T12:10:49;21.61;118.99
76750;DHT22;66447;35.844;14.468;2023-03-07T12:25:57;20.94;118.99
76750;DHT22;66447;35.844;14.468;2023-03-07T12:56:25;20.94;118.99
76750;DHT22;66447;35.844;14.468;2023-03-07T13:11:29;19.83;118.99
76750;DHT22;66447;35.844;14.468;2023-03-07T13:26:32;20.43;118.99
76750;DHT22;66447;35.844;14.468;2023-03-07T13:41:52;19.86;118.99
76750;DHT22;66447;35.844;14.468;2023-03-07T13:56:54;21.38;112.74
76750;DHT22;66447;35.844;14.468;2023-03-07T14:27:14;19.12;118.99
76750;DHT22;66447;35.844;14.468;2023-03-07T14:57:30;19.61;118.99
76750;DHT22;66447;35.844;14.468;2023-03-07T15:12:32;19.40;118.99
76750;DHT22;66447;35.844;14.468;2023-03-07T15:27:34;19.99;118.99
76750;DHT22;66447;35.844;14.468;2023-03-07T15:42:52;19.55;118.99
76750;DHT22;66447;35.844;14.468;2023-03-07T15:57:57;17.76;118.99
76750;DHT22;66447;35.844;14.468;2023-03-07T16:13:00;17.91;118.99
76750;DHT22;66447;35.844;14.468;2023-03-07T16:28:02;16.72;118.99
76750;DHT22;66447;35.844;14.468;2023-03-07T16:43:04;16.40;118.99
76750;DHT22;66447;35.844;14.468;2023-03-07T16:58:17;16.48;118.99
76750;DHT22;66447;35.844;14.468;2023-03-07T17:13:19;16.24;118.99
76750;DHT22;66447;35.844;14.468;2023-03-07T17:28:20;15.83;118.99
76750;DHT22;66447;35.844;14.468;2023-03-07T17:43:22;15.65;118.99
76750;DHT22;66447;35.844;14.468;2023-03-07T17:58:23;16.07;118.99
76750;DHT22;66447;35.844;14.468;2023-03-07T18:13:25;15.58;118.99
76750;DHT22;66447;35.844;14.468;2023-03-07T18:28:27;15.82;118.99
76750;DHT22;66447;35.844;14.468;2023-03-07T18:43:29;15.74;118.99
76750;DHT22;66447;35.844;14.468;2023-03-07T18:58:30;14.91;118.99
76750;DHT22;66447;35.844;14.468;2023-03-07T19:13:33;15.38;118.99
76750;DHT22;66447;35.844;14.468;2023-03-07T19:28:35;14.74;118.99
76750;DHT22;66447;35.844;14.468;2023-03-07T19:43:47;14.85;118.99
76750;DHT22;66447;35.844;14.468;2023-03-07T19:59:01;14.64;118.99
76750;DHT22;66447;35.844;14.468;2023-03-07T20:14:05;14.84;118.99
76750;DHT22;66447;35.844;14.468;2023-03-07T20:29:06;14.91;118.99
76750;DHT22;66447;35.844;14.468;2023-03-07T20:44:11;14.77;118.99
76750;DHT22;66447;35.844;14.468;2023-03-07T20:59:15;14.22;118.99
76750;DHT22;66447;35.844;14.468;2023-03-07T21:14:18;14.65;118.99
76750;DHT22;66447;35.844;14.468;2023-03-07T21:29:19;14.75;118.99
76750;DHT22;66447;35.844;14.468;2023-03-07T21:44:21;14.66;118.99
76750;DHT22;66447;35.844;14.468;2023-03-07T21:59:22;14.64;118.99
76750;DHT22;66447;35.844;14.468;2023-03-07T22:14:23;14.57;118.99
76750;DHT22;66447;35.844;14.468;2023-03-07T22:29:25;14.51;118.99
76750;DHT22;66447;35.844;14.468;2023-03-07T22:44:26;14.26;118.99
76750;DHT22;66447;35.844;14.468;2023-03-07T22:59:27;14.23;118.99
76750;DHT22;66447;35.844;14.468;2023-03-07T23:14:28;14.96;118.99
76750;DHT22;66447;35.844;14.468;2023-03-07T23:29:30;14.39;118.99
76750;DHT22;66447;35.844;14.468;2023-03-07T23:44:31;14.85;118.99
76750;DHT22;66447;35.844;14.468;2023-03-07T23:59:32;14.32;118.99
